Time;durP1;ratioP1;P1;durP2;ratioP2;P2;SDS_P1;SDS_P2;PMS_P1;PMS_P2;Temp;Humidity;BMP_temperature;BMP_pressure;BME280_temperature;BME280_humidity;BME280_pressure;Samples;Min_cycle;Max_cycle;Signal;HPM_P1;HPM_P2
2021/11/10 00:00:26;;;;;;;31.13;28.77;;;3.00;92.10;;;;;;5052402;28;20200;-73
2021/11/10 00:02:53;;;;;;;30.10;27.52;;;3.00;94.00;;;;;;5044165;28;20219;-73
2021/11/10 00:05:20;;;;;;;29.75;27.38;;;3.00;95.80;;;;;;5050504;28;20286;-74
2021/11/10 00:07:48;;;;;;;28.75;26.55;;;3.00;97.80;;;;;;5046984;28;20585;-73
2021/11/10 00:10:17;;;;;;;28.73;26.13;;;2.90;94.40;;;;;;5051297;28;20281;-73
2021/11/10 00:12:44;;;;;;;254.95;44.25;;;2.90;93.60;;;;;;5054641;28;20574;-73
2021/11/10 00:15:12;;;;;;;36.50;28.40;;;2.90;95.70;;;;;;5051070;28;20389;-73
2021/11/10 00:17:40;;;;;;;29.27;26.63;;;2.90;95.90;;;;;;5060514;28;20200;-73
2021/11/10 00:20:09;;;;;;;29.73;27.20;;;2.90;94.70;;;;;;5059525;28;20203;-73
2021/11/10 00:22:36;;;;;;;28.48;26.27;;;2.90;94.20;;;;;;5051222;28;20217;-74
2021/11/10 00:25:04;;;;;;;28.38;26.08;;;2.90;93.60;;;;;;5043096;28;20199;-73
2021/11/10 00:27:33;;;;;;;28.98;26.77;;;2.90;93.20;;;;;;5053316;28;20211;-73
2021/11/10 00:30:00;;;;;;;28.77;26.67;;;2.90;92.70;;;;;;5056236;28;20193;-73
2021/11/10 00:32:27;;;;;;;29.27;26.88;;;2.90;93.20;;;;;;5046906;28;20215;-73
2021/11/10 00:34:54;;;;;;;30.70;28.25;;;2.90;92.90;;;;;;5058962;28;20207;-73
2021/11/10 00:37:21;;;;;;;30.23;27.70;;;2.90;92.80;;;;;;5047260;28;20565;-73
2021/11/10 00:39:48;;;;;;;29.00;26.80;;;2.90;92.60;;;;;;5047687;28;20588;-73
2021/11/10 00:42:14;;;;;;;28.38;26.23;;;2.90;92.40;;;;;;5050609;28;20734;-73
2021/11/10 00:44:43;;;;;;;30.80;28.40;;;2.90;92.50;;;;;;5051409;28;20204;-73
2021/11/10 00:47:10;;;;;;;29.15;26.85;;;2.80;93.10;;;;;;5048275;28;20199;-73
2021/11/10 00:49:37;;;;;;;28.58;26.20;;;2.90;93.10;;;;;;5054972;28;20205;-73
2021/11/10 00:52:04;;;;;;;29.90;27.58;;;2.90;92.50;;;;;;5050821;28;20219;-72
2021/11/10 00:54:32;;;;;;;29.40;26.70;;;2.80;92.90;;;;;;5055133;28;20650;-72
2021/11/10 00:56:59;;;;;;;29.13;27.02;;;2.80;94.40;;;;;;5058439;28;20196;-73
2021/11/10 00:59:25;;;;;;;30.17;27.67;;;2.80;94.40;;;;;;5051408;28;20210;-73
2021/11/10 01:01:54;;;;;;;29.52;27.13;;;2.80;94.20;;;;;;5050386;28;20206;-73
2021/11/10 01:04:21;;;;;;;29.85;27.42;;;2.80;94.10;;;;;;5050351;28;20282;-72
2021/11/10 01:06:48;;;;;;;29.70;27.48;;;2.80;93.90;;;;;;5056668;28;20199;-72
2021/11/10 01:09:17;;;;;;;29.33;27.02;;;2.90;93.30;;;;;;5045254;28;20210;-73
2021/11/10 01:11:45;;;;;;;29.67;27.38;;;2.90;92.40;;;;;;5049163;28;20284;-73
2021/11/10 01:14:13;;;;;;;30.50;27.98;;;2.90;92.20;;;;;;5049205;28;20629;-72
2021/11/10 01:16:39;;;;;;;28.85;26.65;;;2.80;92.80;;;;;;5050454;28;20199;-72
2021/11/10 01:19:08;;;;;;;32.22;29.52;;;2.70;93.20;;;;;;5053932;28;20523;-72
2021/11/10 01:21:35;;;;;;;30.20;27.70;;;2.70;93.50;;;;;;5052150;28;20540;-72
2021/11/10 01:24:02;;;;;;;30.92;28.38;;;2.70;93.80;;;;;;5056703;28;20216;-73
2021/11/10 01:26:29;;;;;;;28.77;26.35;;;2.70;93.80;;;;;;5053511;28;20199;-73
2021/11/10 01:28:57;;;;;;;29.45;27.30;;;2.70;93.30;;;;;;5051029;28;20219;-74
2021/11/10 01:31:24;;;;;;;30.40;27.45;;;2.70;93.30;;;;;;5052046;28;20216;-73
2021/11/10 01:33:51;;;;;;;28.35;26.10;;;2.60;93.20;;;;;;5052851;28;20222;-72
2021/11/10 01:36:20;;;;;;;29.80;27.55;;;2.60;93.10;;;;;;5051491;28;20200;-72
2021/11/10 01:38:47;;;;;;;28.85;26.63;;;2.60;93.40;;;;;;5059153;28;20236;-73
2021/11/10 01:41:14;;;;;;;30.73;27.98;;;2.60;93.50;;;;;;5056150;28;20191;-72
2021/11/10 01:43:41;;;;;;;30.38;28.08;;;2.70;93.80;;;;;;5047984;28;20220;-72
2021/11/10 01:46:08;;;;;;;30.73;27.98;;;2.70;93.70;;;;;;5061284;28;20223;-72
2021/11/10 01:48:35;;;;;;;30.52;27.83;;;2.70;93.70;;;;;;5049849;28;20561;-73
2021/11/10 01:51:02;;;;;;;30.60;28.35;;;2.80;93.40;;;;;;5051874;28;20203;-73
2021/11/10 01:53:30;;;;;;;30.90;28.70;;;2.80;92.80;;;;;;5058000;28;20580;-73
2021/11/10 01:55:58;;;;;;;31.17;28.55;;;2.80;93.10;;;;;;5058887;28;20286;-73
2021/11/10 01:58:25;;;;;;;30.00;27.77;;;2.70;93.60;;;;;;5057146;28;20282;-73
2021/11/10 02:00:52;;;;;;;31.08;28.55;;;2.70;93.50;;;;;;5054650;28;20713;-73
2021/11/10 02:03:19;;;;;;;30.23;27.95;;;2.70;93.50;;;;;;5048967;28;20213;-73
2021/11/10 02:05:46;;;;;;;31.88;29.27;;;2.60;93.40;;;;;;5055260;28;20203;-73
2021/11/10 02:08:13;;;;;;;32.88;29.98;;;2.70;93.90;;;;;;5050054;28;20199;-73
2021/11/10 02:10:42;;;;;;;31.25;28.60;;;2.70;93.70;;;;;;5055306;28;20204;-73
2021/11/10 02:13:09;;;;;;;30.65;28.05;;;2.70;93.90;;;;;;5053161;28;20703;-73
2021/11/10 02:15:37;;;;;;;30.35;27.77;;;2.60;93.80;;;;;;5061219;28;20226;-73
2021/11/10 02:18:04;;;;;;;30.73;28.23;;;2.60;93.50;;;;;;5044089;28;20199;-73
2021/11/10 02:20:34;;;;;;;30.33;27.63;;;2.70;93.10;;;;;;5052115;28;20200;-73
2021/11/10 02:23:04;;;;;;;30.08;27.58;;;2.80;92.00;;;;;;5050681;28;20693;-73
2021/11/10 02:25:31;;;;;;;30.77;28.17;;;2.90;91.50;;;;;;5051699;28;20202;-73
2021/11/10 02:27:59;;;;;;;29.05;26.85;;;2.80;91.30;;;;;;5047647;28;20286;-72
2021/11/10 02:30:26;;;;;;;31.38;28.85;;;2.70;91.80;;;;;;5050148;28;20301;-73
2021/11/10 02:32:55;;;;;;;30.42;27.95;;;2.60;92.40;;;;;;5048258;28;20223;-73
2021/11/10 02:35:23;;;;;;;30.85;28.35;;;2.50;92.70;;;;;;5052982;28;20208;-73
2021/11/10 02:37:51;;;;;;;30.08;27.77;;;2.50;92.80;;;;;;5058131;28;20201;-73
2021/11/10 02:40:20;;;;;;;31.85;29.15;;;2.50;93.00;;;;;;5056164;28;20200;-72
2021/11/10 02:42:47;;;;;;;30.80;28.30;;;2.40;92.70;;;;;;5051299;28;20573;-72
2021/11/10 02:45:14;;;;;;;31.88;28.83;;;2.40;92.70;;;;;;5053870;28;20194;-73
2021/11/10 02:47:42;;;;;;;31.70;29.08;;;2.40;92.70;;;;;;5050755;28;20190;-73
2021/11/10 02:50:10;;;;;;;31.33;28.95;;;2.30;92.50;;;;;;5051885;28;20197;-73
2021/11/10 02:52:38;;;;;;;32.97;30.13;;;2.30;92.50;;;;;;5049051;28;20218;-73
2021/11/10 02:55:06;;;;;;;32.45;29.67;;;2.40;92.30;;;;;;5058906;28;20200;-72
2021/11/10 02:57:35;;;;;;;32.03;29.50;;;2.40;92.20;;;;;;5052315;28;20569;-71
2021/11/10 03:00:02;;;;;;;32.30;29.05;;;2.30;92.40;;;;;;5050966;28;20678;-72
2021/11/10 03:02:31;;;;;;;30.80;28.40;;;2.30;92.50;;;;;;5053062;28;20738;-72
2021/11/10 03:04:59;;;;;;;32.05;29.55;;;2.30;92.30;;;;;;5055084;28;20201;-72
2021/11/10 03:07:27;;;;;;;33.05;30.10;;;2.30;92.50;;;;;;5046446;28;20207;-71
2021/11/10 03:09:53;;;;;;;33.28;30.52;;;2.20;92.80;;;;;;5048316;28;20291;-72
2021/11/10 03:12:20;;;;;;;33.72;30.88;;;2.20;92.90;;;;;;5054241;28;20705;-72
2021/11/10 03:14:49;;;;;;;33.05;30.25;;;2.10;93.60;;;;;;5057662;28;20569;-72
2021/11/10 03:17:18;;;;;;;34.65;31.55;;;2.20;93.50;;;;;;5053867;28;20204;-72
2021/11/10 03:19:45;;;;;;;36.20;32.75;;;2.30;93.00;;;;;;5057200;28;20205;-72
2021/11/10 03:22:13;;;;;;;34.17;31.25;;;2.20;95.80;;;;;;5052995;28;20245;-72
2021/11/10 03:24:40;;;;;;;34.97;32.17;;;2.20;95.50;;;;;;5050178;28;20207;-72
2021/11/10 03:27:08;;;;;;;35.58;32.63;;;2.20;95.00;;;;;;5048715;28;20201;-72
2021/11/10 03:29:36;;;;;;;34.35;31.25;;;2.10;94.60;;;;;;5058180;28;20212;-73
2021/11/10 03:32:06;;;;;;;34.78;32.10;;;2.10;94.40;;;;;;5055196;28;20293;-73
2021/11/10 03:34:34;;;;;;;34.38;31.23;;;2.10;94.70;;;;;;5055696;28;20317;-73
2021/11/10 03:37:01;;;;;;;36.72;33.60;;;2.30;94.20;;;;;;5049295;28;20202;-73
2021/11/10 03:39:28;;;;;;;296.60;56.78;;;2.30;93.90;;;;;;5058912;28;20195;-73
2021/11/10 03:41:56;;;;;;;36.00;32.60;;;2.30;95.40;;;;;;5049941;28;20209;-73
2021/11/10 03:44:24;;;;;;;36.28;32.90;;;2.30;95.40;;;;;;5048551;28;20202;-73
2021/11/10 03:46:51;;;;;;;36.63;33.03;;;2.40;96.10;;;;;;5049306;28;20326;-73
2021/11/10 03:49:20;;;;;;;36.80;33.15;;;2.40;95.50;;;;;;5055765;28;20209;-73
2021/11/10 03:51:47;;;;;;;38.03;34.55;;;2.60;94.90;;;;;;5048581;28;20724;-73
2021/11/10 03:54:15;;;;;;;35.63;32.63;;;2.70;94.50;;;;;;5052036;28;20220;-73
2021/11/10 03:56:43;;;;;;;36.47;33.22;;;2.70;94.90;;;;;;5052364;28;20208;-73
2021/11/10 03:59:10;;;;;;;38.33;35.05;;;2.80;94.20;;;;;;5051760;28;20199;-73
2021/11/10 04:01:36;;;;;;;36.05;32.72;;;2.80;94.80;;;;;;5050741;28;20200;-73
2021/11/10 04:04:04;;;;;;;36.85;33.53;;;2.80;94.00;;;;;;5049455;28;20222;-73
2021/11/10 04:06:35;;;;;;;38.65;35.15;;;2.90;93.90;;;;;;5055996;28;20217;-73
2021/11/10 04:09:05;;;;;;;37.60;34.50;;;2.90;94.00;;;;;;5048352;28;20214;-73
2021/11/10 04:11:32;;;;;;;36.30;33.33;;;2.90;93.70;;;;;;5053175;28;20286;-73
2021/11/10 04:13:59;;;;;;;35.88;32.58;;;2.90;93.70;;;;;;5061076;28;20317;-73
2021/11/10 04:16:26;;;;;;;47.05;35.28;;;2.90;93.90;;;;;;5048516;28;20200;-73
2021/11/10 04:18:55;;;;;;;39.38;35.47;;;3.00;93.30;;;;;;5047357;28;20196;-73
2021/11/10 04:21:23;;;;;;;37.17;33.78;;;3.00;93.00;;;;;;5050849;28;20291;-72
2021/11/10 04:23:54;;;;;;;37.42;34.22;;;3.00;93.00;;;;;;5048049;28;20225;-73
2021/11/10 04:26:23;;;;;;;39.22;35.42;;;2.90;93.20;;;;;;5046693;28;20192;-73
2021/11/10 04:28:50;;;;;;;37.65;34.10;;;2.90;93.30;;;;;;5050465;28;20210;-73
2021/11/10 04:31:19;;;;;;;37.50;34.40;;;3.00;93.00;;;;;;5050004;28;20297;-73
2021/11/10 04:33:46;;;;;;;40.38;36.35;;;3.10;92.60;;;;;;5055054;28;20255;-73
2021/11/10 04:36:13;;;;;;;38.53;35.13;;;3.10;92.00;;;;;;5057951;28;20207;-73
2021/11/10 04:38:40;;;;;;;34.35;31.52;;;3.00;92.50;;;;;;5054200;28;20199;-73
2021/11/10 04:41:09;;;;;;;37.47;33.95;;;3.00;92.80;;;;;;5048358;28;20882;-73
2021/11/10 04:43:36;;;;;;;36.60;33.40;;;3.00;93.20;;;;;;5057869;28;20216;-72
2021/11/10 04:46:08;;;;;;;35.20;32.05;;;3.00;92.80;;;;;;5053685;28;20325;-73
2021/11/10 04:48:37;;;;;;;36.17;33.05;;;3.00;92.50;;;;;;5046821;28;20195;-73
2021/11/10 04:51:05;;;;;;;34.80;31.80;;;3.00;92.30;;;;;;5051528;28;20238;-73
2021/11/10 04:53:35;;;;;;;86.40;39.40;;;3.00;92.10;;;;;;5058894;28;20231;-73
2021/11/10 04:56:02;;;;;;;38.30;34.42;;;3.00;92.50;;;;;;5065404;28;20204;-73
2021/11/10 04:58:31;;;;;;;37.42;34.13;;;3.00;92.20;;;;;;5054630;28;20200;-73
2021/11/10 05:00:58;;;;;;;485.38;81.68;;;3.00;91.80;;;;;;5054006;28;20235;-71
2021/11/10 05:03:25;;;;;;;416.35;77.88;;;3.00;93.00;;;;;;5053708;28;20220;-73
2021/11/10 05:05:52;;;;;;;35.83;32.78;;;2.90;93.10;;;;;;5051785;28;20225;-72
2021/11/10 05:08:19;;;;;;;386.88;75.20;;;2.80;94.40;;;;;;5047419;28;20213;-73
2021/11/10 05:10:46;;;;;;;544.83;85.25;;;2.80;96.10;;;;;;5056284;28;20290;-73
2021/11/10 05:13:13;;;;;;;35.70;32.20;;;2.80;99.30;;;;;;5056808;28;20225;-73
2021/11/10 05:15:41;;;;;;;36.92;33.70;;;2.80;99.50;;;;;;5062877;28;20199;-73
2021/11/10 05:18:09;;;;;;;36.67;33.38;;;2.80;97.00;;;;;;5048924;28;20199;-73
2021/11/10 05:20:35;;;;;;;37.30;34.00;;;2.70;95.70;;;;;;5066933;28;20209;-73
2021/11/10 05:23:02;;;;;;;36.38;33.38;;;2.70;94.70;;;;;;5049652;28;20219;-71
2021/11/10 05:25:29;;;;;;;37.33;34.28;;;2.50;94.70;;;;;;5061223;28;20230;-73
2021/11/10 05:27:56;;;;;;;305.90;60.25;;;2.60;94.70;;;;;;5057521;28;20239;-74
2021/11/10 05:30:23;;;;;;;445.42;88.63;;;2.50;94.90;;;;;;5058091;28;20721;-72
2021/11/10 05:32:51;;;;;;;36.25;32.95;;;2.50;95.60;;;;;;5050528;28;20225;-72
2021/11/10 05:35:18;;;;;;;36.33;33.20;;;2.50;98.50;;;;;;5055643;28;20639;-72
2021/11/10 05:37:45;;;;;;;37.97;34.17;;;2.50;96.80;;;;;;5051164;28;20678;-72
2021/11/10 05:40:12;;;;;;;36.22;32.80;;;2.40;96.30;;;;;;5067679;28;20286;-71
2021/11/10 05:42:40;;;;;;;38.20;34.72;;;2.50;95.60;;;;;;5057313;28;20540;-72
2021/11/10 05:45:08;;;;;;;97.32;37.35;;;2.60;95.30;;;;;;5052099;28;20276;-72
2021/11/10 05:47:35;;;;;;;36.05;33.05;;;2.40;95.10;;;;;;5052132;28;20699;-72
2021/11/10 05:50:04;;;;;;;36.42;33.15;;;2.50;95.30;;;;;;5054043;28;20223;-74
2021/11/10 05:52:31;;;;;;;38.03;34.55;;;2.60;95.70;;;;;;5059849;28;20222;-73
2021/11/10 05:54:57;;;;;;;35.35;32.00;;;2.60;94.70;;;;;;5049954;28;20212;-72
2021/11/10 05:57:25;;;;;;;744.80;129.43;;;2.70;94.00;;;;;;5050028;28;20723;-74
2021/11/10 05:59:52;;;;;;;36.03;32.88;;;2.70;94.10;;;;;;5048558;28;20324;-73
2021/11/10 06:02:20;;;;;;;107.70;41.17;;;2.70;94.10;;;;;;5045959;28;20222;-73
2021/11/10 06:04:47;;;;;;;1999.90;542.78;;;2.60;94.50;;;;;;5049840;28;20294;-76
2021/11/10 06:07:16;;;;;;;556.30;99.43;;;2.70;94.60;;;;;;5052547;28;20280;-73
2021/11/10 06:09:43;;;;;;;40.72;35.53;;;2.60;96.90;;;;;;5047318;28;20329;-75
2021/11/10 06:12:11;;;;;;;39.03;35.45;;;2.60;96.90;;;;;;5045112;28;20234;-76
2021/11/10 06:14:38;;;;;;;39.50;36.05;;;2.60;96.10;;;;;;5049135;28;20224;-74
2021/11/10 06:17:05;;;;;;;38.58;35.13;;;2.60;95.80;;;;;;5050007;28;20200;-74
2021/11/10 06:19:32;;;;;;;39.10;35.30;;;2.60;95.30;;;;;;5048649;28;20609;-73
2021/11/10 06:21:59;;;;;;;36.83;33.30;;;2.60;95.00;;;;;;5047697;28;20585;-76
2021/11/10 06:24:28;;;;;;;36.75;33.55;;;2.60;94.70;;;;;;5058400;28;20190;-77
2021/11/10 06:26:55;;;;;;;38.95;35.80;;;2.60;94.40;;;;;;5049644;28;20230;-76
2021/11/10 06:29:23;;;;;;;38.70;35.58;;;2.60;94.00;;;;;;5059363;28;20294;-75
2021/11/10 06:31:50;;;;;;;36.70;33.40;;;2.50;93.80;;;;;;5048349;28;20207;-75
2021/11/10 06:34:17;;;;;;;36.85;33.58;;;2.40;93.80;;;;;;5050955;28;20223;-75
2021/11/10 06:36:44;;;;;;;37.28;33.80;;;2.40;93.80;;;;;;5049176;28;20596;-74
2021/11/10 06:39:12;;;;;;;35.17;32.17;;;2.40;93.80;;;;;;5054543;28;20208;-75
2021/11/10 06:41:41;;;;;;;38.85;35.75;;;2.50;93.90;;;;;;5049565;28;20198;-75
2021/11/10 06:44:08;;;;;;;39.20;35.90;;;2.50;93.70;;;;;;5060037;28;20210;-74
2021/11/10 06:46:35;;;;;;;37.03;33.97;;;2.50;93.80;;;;;;5045260;28;20290;-74
2021/11/10 06:49:03;;;;;;;36.83;33.55;;;2.50;93.90;;;;;;5035393;28;20574;-75
2021/11/10 06:51:30;;;;;;;39.55;35.80;;;2.60;94.20;;;;;;5042709;28;20287;-74
2021/11/10 06:54:00;;;;;;;38.10;34.92;;;2.70;93.80;;;;;;5046685;28;20285;-75
2021/11/10 06:56:27;;;;;;;35.67;32.65;;;2.80;93.40;;;;;;5045012;28;20284;-73
2021/11/10 06:58:59;;;;;;;39.10;35.67;;;2.80;93.10;;;;;;5056041;28;20225;-73
2021/11/10 07:01:26;;;;;;;39.08;35.15;;;2.90;93.20;;;;;;5050148;28;20230;-74
2021/11/10 07:03:53;;;;;;;36.25;33.25;;;3.00;92.60;;;;;;5050393;28;20310;-77
2021/11/10 07:06:20;;;;;;;38.92;35.50;;;3.00;92.60;;;;;;5048699;28;20559;-73
2021/11/10 07:08:47;;;;;;;39.33;35.38;;;3.10;92.60;;;;;;5051127;28;20212;-74
2021/11/10 07:11:14;;;;;;;37.42;34.10;;;3.10;92.50;;;;;;5048411;28;20325;-74
2021/11/10 07:13:41;;;;;;;39.90;36.03;;;3.10;92.60;;;;;;5052686;28;20219;-74
2021/11/10 07:16:10;;;;;;;39.45;35.70;;;3.20;92.30;;;;;;5048174;28;20491;-74
2021/11/10 07:18:37;;;;;;;36.72;33.30;;;3.40;92.40;;;;;;5049252;28;20202;-73
2021/11/10 07:21:04;;;;;;;38.67;35.55;;;3.50;91.50;;;;;;5048457;28;20222;-76
2021/11/10 07:23:31;;;;;;;37.08;32.90;;;3.50;91.40;;;;;;5052610;28;20283;-74
2021/11/10 07:26:03;;;;;;;39.42;35.20;;;3.50;91.50;;;;;;5049371;28;20197;-74
2021/11/10 07:28:30;;;;;;;39.83;36.42;;;3.60;91.30;;;;;;5061052;28;20208;-74
2021/11/10 07:30:57;;;;;;;39.05;35.80;;;3.70;91.20;;;;;;5067656;28;20709;-74
2021/11/10 07:33:26;;;;;;;40.42;36.83;;;3.80;91.40;;;;;;5048728;28;20216;-73
2021/11/10 07:35:53;;;;;;;38.55;35.08;;;3.90;92.50;;;;;;5050375;28;20627;-76
2021/11/10 07:38:25;;;;;;;36.28;33.38;;;4.00;92.40;;;;;;5043046;28;20235;-73
2021/11/10 07:40:53;;;;;;;36.88;33.75;;;4.10;91.50;;;;;;5049531;28;20220;-73
2021/11/10 07:43:21;;;;;;;36.88;33.60;;;4.20;90.90;;;;;;5049826;28;20219;-74
2021/11/10 07:45:54;;;;;;;97.88;38.95;;;4.20;90.80;;;;;;5049307;28;20799;-73
2021/11/10 07:48:21;;;;;;;39.90;35.83;;;4.40;89.80;;;;;;5046089;28;20193;-74
2021/11/10 07:50:50;;;;;;;74.72;38.63;;;4.40;91.00;;;;;;5050082;28;20200;-72
2021/11/10 07:53:17;;;;;;;64.15;37.28;;;4.60;89.60;;;;;;5053400;28;20213;-73
2021/11/10 07:55:44;;;;;;;37.53;34.05;;;4.60;89.40;;;;;;5050307;28;20713;-73
2021/11/10 07:58:11;;;;;;;38.45;35.30;;;4.60;90.10;;;;;;5048452;28;20201;-73
2021/11/10 08:00:39;;;;;;;38.78;35.53;;;4.80;89.10;;;;;;5054756;28;20629;-73
2021/11/10 08:03:07;;;;;;;36.17;32.90;;;4.90;89.90;;;;;;5049369;28;20271;-72
2021/11/10 08:05:36;;;;;;;482.35;71.63;;;4.90;89.90;;;;;;5059128;28;20192;-72
2021/11/10 08:08:05;;;;;;;37.67;34.10;;;4.90;90.80;;;;;;5048033;28;20767;-72
2021/11/10 08:10:33;;;;;;;39.83;36.47;;;4.90;91.50;;;;;;5047908;28;20543;-72
2021/11/10 08:13:01;;;;;;;38.33;34.63;;;5.00;89.60;;;;;;5044831;28;20212;-72
2021/11/10 08:15:28;;;;;;;37.80;34.53;;;5.00;89.70;;;;;;5061750;28;20335;-72
2021/11/10 08:17:56;;;;;;;37.83;34.53;;;5.20;88.20;;;;;;5046135;28;20203;-71
2021/11/10 08:20:24;;;;;;;38.67;34.95;;;5.30;88.00;;;;;;5051671;28;20555;-73
2021/11/10 08:22:51;;;;;;;37.88;34.47;;;5.40;87.40;;;;;;5045846;28;20224;-72
2021/11/10 08:25:20;;;;;;;36.10;33.10;;;5.50;86.80;;;;;;5050910;28;20271;-73
2021/11/10 08:27:51;;;;;;;39.30;36.03;;;5.70;85.90;;;;;;5045489;28;20197;-73
2021/11/10 08:30:19;;;;;;;38.83;35.72;;;5.70;85.80;;;;;;5046602;28;20197;-72
2021/11/10 08:32:47;;;;;;;36.70;33.53;;;5.70;87.10;;;;;;5045369;28;20220;-72
2021/11/10 08:35:15;;;;;;;38.03;34.60;;;5.80;88.20;;;;;;5047385;28;20987;-73
2021/11/10 08:37:42;;;;;;;37.97;34.63;;;5.90;87.30;;;;;;5051853;28;20558;-73
2021/11/10 08:40:11;;;;;;;38.17;34.95;;;6.00;86.70;;;;;;5051325;28;20280;-74
2021/11/10 08:42:40;;;;;;;36.63;33.63;;;6.00;86.20;;;;;;5052392;28;20239;-73
2021/11/10 08:45:11;;;;;;;42.38;38.38;;;6.00;86.10;;;;;;5045576;28;20207;-73
2021/11/10 08:47:39;;;;;;;40.10;36.80;;;6.10;86.20;;;;;;5047854;28;20192;-75
2021/11/10 08:50:08;;;;;;;40.00;36.55;;;6.30;85.30;;;;;;5041121;28;20211;-75
2021/11/10 08:52:35;;;;;;;39.03;35.65;;;6.50;84.60;;;;;;5051695;28;20212;-74
2021/11/10 08:55:03;;;;;;;38.20;34.90;;;6.60;83.90;;;;;;5035705;28;20227;-75
2021/11/10 08:57:30;;;;;;;38.92;35.63;;;6.70;83.60;;;;;;5035202;28;20320;-75
2021/11/10 08:59:58;;;;;;;37.50;34.50;;;6.80;82.80;;;;;;5059757;28;20193;-74
2021/11/10 09:02:29;;;;;;;37.88;34.58;;;7.00;82.60;;;;;;5051744;28;20248;-76
2021/11/10 09:04:55;;;;;;;37.33;33.85;;;7.10;82.00;;;;;;5048804;28;20250;-73
2021/11/10 09:07:22;;;;;;;40.55;36.97;;;7.20;81.50;;;;;;5037115;28;20575;-75
2021/11/10 09:09:51;;;;;;;38.25;35.00;;;7.20;81.40;;;;;;5043737;28;20212;-74
2021/11/10 09:12:18;;;;;;;39.75;36.55;;;7.40;81.20;;;;;;5047439;28;20220;-74
2021/11/10 09:14:44;;;;;;;39.10;36.10;;;7.40;80.50;;;;;;5048482;28;20220;-73
2021/11/10 09:17:15;;;;;;;40.97;37.35;;;7.40;80.50;;;;;;5045283;28;20197;-72
2021/11/10 09:19:42;;;;;;;39.75;36.33;;;7.50;80.40;;;;;;5058543;28;20211;-73
2021/11/10 09:22:10;;;;;;;42.00;38.60;;;7.60;80.30;;;;;;5045663;28;20212;-74
2021/11/10 09:24:38;;;;;;;39.70;36.35;;;7.70;80.40;;;;;;5048004;28;20201;-73
2021/11/10 09:27:07;;;;;;;40.25;37.25;;;7.80;80.30;;;;;;5047199;28;20204;-73
2021/11/10 09:29:34;;;;;;;40.35;36.58;;;7.90;80.00;;;;;;5048085;28;20208;-71
2021/11/10 09:32:01;;;;;;;39.13;35.92;;;8.10;79.80;;;;;;5043161;28;20201;-72
2021/11/10 09:34:30;;;;;;;39.05;35.90;;;8.20;79.70;;;;;;5047185;28;20218;-72
2021/11/10 09:36:58;;;;;;;42.58;38.95;;;8.30;78.90;;;;;;5055000;28;20200;-73
2021/11/10 09:39:26;;;;;;;41.45;38.20;;;8.40;78.30;;;;;;5056932;28;20570;-75
2021/11/10 09:41:55;;;;;;;38.88;35.75;;;8.50;78.00;;;;;;5050260;28;20199;-72
2021/11/10 09:44:24;;;;;;;40.13;36.83;;;8.60;77.50;;;;;;5049841;28;20196;-73
2021/11/10 09:46:52;;;;;;;41.07;37.67;;;8.80;77.50;;;;;;5055573;28;20200;-75
2021/11/10 09:49:19;;;;;;;43.17;39.42;;;8.90;76.80;;;;;;5051116;28;20476;-73
2021/11/10 09:51:49;;;;;;;39.77;36.07;;;9.10;76.50;;;;;;5049672;28;20248;-74
2021/11/10 09:54:17;;;;;;;40.80;37.40;;;9.20;76.10;;;;;;5051723;28;20972;-76
2021/11/10 09:56:45;;;;;;;43.33;39.60;;;9.30;75.50;;;;;;5051445;28;20545;-74
2021/11/10 09:59:13;;;;;;;41.30;38.10;;;9.40;75.30;;;;;;5065300;28;20486;-75
2021/11/10 10:01:44;;;;;;;41.33;37.80;;;9.30;74.20;;;;;;5050207;28;20540;-75
2021/11/10 10:04:13;;;;;;;42.67;38.97;;;9.30;73.30;;;;;;5048464;28;20944;-76
2021/11/10 10:06:41;;;;;;;42.87;39.20;;;9.30;73.70;;;;;;5049763;28;20443;-74
2021/11/10 10:09:09;;;;;;;41.97;38.17;;;9.30;80.10;;;;;;5053083;28;20453;-75
2021/11/10 10:11:37;;;;;;;43.30;39.20;;;9.30;78.60;;;;;;5062193;28;20503;-75
2021/11/10 10:14:04;;;;;;;42.57;38.67;;;9.30;79.20;;;;;;5050296;28;20561;-75
2021/11/10 10:16:42;;;;;;;42.70;39.10;;;9.20;78.80;;;;;;5043906;28;20478;-75
2021/11/10 10:19:16;;;;;;;41.93;38.17;;;9.30;77.60;;;;;;5052577;28;20577;-75
2021/11/10 10:21:44;;;;;;;43.03;39.13;;;9.30;77.80;;;;;;5048993;28;20548;-74
2021/11/10 10:24:15;;;;;;;41.30;37.80;;;9.40;74.70;;;;;;5055437;28;20860;-75
2021/11/10 10:26:43;;;;;;;43.70;39.73;;;9.40;75.60;;;;;;5031107;28;20484;-75
2021/11/10 10:29:12;;;;;;;43.53;39.83;;;9.50;73.40;;;;;;5043597;28;20507;-75
2021/11/10 10:31:41;;;;;;;45.37;40.83;;;9.40;72.90;;;;;;5049443;28;20451;-75
2021/11/10 10:34:10;;;;;;;40.23;36.50;;;9.40;72.20;;;;;;5055102;28;21032;-75
2021/11/10 10:36:39;;;;;;;42.37;38.47;;;9.30;72.20;;;;;;5043315;28;20491;-75
2021/11/10 10:39:08;;;;;;;43.47;39.10;;;9.20;72.40;;;;;;5051250;28;20459;-75
2021/11/10 10:41:38;;;;;;;41.00;37.30;;;9.30;72.20;;;;;;5044607;28;20506;-75
2021/11/10 10:44:07;;;;;;;43.17;39.00;;;9.10;73.60;;;;;;5050959;28;20485;-74
2021/11/10 10:46:37;;;;;;;42.73;38.80;;;9.20;73.40;;;;;;5050311;28;20459;-74
2021/11/10 10:49:17;;;;;;;41.67;38.17;;;9.30;73.00;;;;;;5050316;28;20501;-75
2021/11/10 10:51:44;;;;;;;42.67;38.93;;;9.20;73.00;;;;;;5044747;28;20487;-77
2021/11/10 10:54:12;;;;;;;42.10;38.37;;;9.10;73.70;;;;;;5052681;28;20455;-77
2021/11/10 10:56:43;;;;;;;42.87;39.10;;;9.30;73.20;;;;;;5047508;28;20475;-75
2021/11/10 10:59:12;;;;;;;44.13;40.17;;;9.50;72.70;;;;;;5050190;28;20455;-77
2021/11/10 11:01:41;;;;;;;42.90;39.50;;;9.50;71.60;;;;;;5044478;28;20551;-75
2021/11/10 11:04:10;;;;;;;43.93;39.93;;;9.60;71.30;;;;;;5042966;28;20451;-75
2021/11/10 11:06:40;;;;;;;41.57;37.87;;;9.70;71.50;;;;;;5049952;28;20983;-75
2021/11/10 11:09:13;;;;;;;41.47;37.90;;;9.80;71.10;;;;;;5050613;28;20546;-74
2021/11/10 11:11:54;;;;;;;43.13;39.60;;;9.70;71.70;;;;;;5047529;28;20500;-74
2021/11/10 11:14:37;;;;;;;43.07;39.17;;;9.70;72.40;;;;;;5056872;28;20457;-74
2021/11/10 11:17:07;;;;;;;43.63;39.53;;;9.70;72.40;;;;;;5044589;28;20479;-74
2021/11/10 11:19:37;;;;;;;42.97;39.40;;;9.80;71.50;;;;;;5051786;28;20558;-74
2021/11/10 11:22:06;;;;;;;43.70;40.20;;;9.90;70.80;;;;;;5053874;28;20844;-74
2021/11/10 11:24:36;;;;;;;45.50;41.17;;;10.00;71.10;;;;;;5049965;28;20549;-74
2021/11/10 11:27:27;;;;;;;44.10;40.10;;;10.10;70.50;;;;;;5051685;28;20537;-75
2021/11/10 11:30:05;;;;;;;46.30;42.30;;;10.20;70.10;;;;;;5054613;28;21015;-74
2021/11/10 11:32:34;;;;;;;44.13;40.30;;;10.20;74.20;;;;;;5052790;28;20474;-73
2021/11/10 11:35:04;;;;;;;44.03;40.43;;;10.10;73.50;;;;;;5048284;28;20493;-74
2021/11/10 11:37:32;;;;;;;45.10;41.20;;;10.20;70.40;;;;;;5049346;28;20463;-74
2021/11/10 11:40:05;;;;;;;44.53;40.83;;;10.10;70.70;;;;;;5053242;28;20523;-73
2021/11/10 11:42:34;;;;;;;45.50;41.23;;;10.10;70.80;;;;;;5054387;28;20913;-73
2021/11/10 11:45:01;;;;;;;42.93;39.27;;;10.20;70.70;;;;;;5054021;28;20460;-73
2021/11/10 11:47:31;;;;;;;45.67;41.93;;;10.20;70.60;;;;;;5054284;28;20464;-73
2021/11/10 11:50:03;;;;;;;46.27;41.73;;;10.20;71.00;;;;;;5047165;28;20469;-73
2021/11/10 11:52:32;;;;;;;41.70;38.27;;;10.20;71.20;;;;;;5046493;28;20561;-75
2021/11/10 11:55:03;;;;;;;43.10;39.27;;;10.00;72.60;;;;;;5049663;28;20466;-75
2021/11/10 11:57:31;;;;;;;42.93;39.53;;;10.10;73.40;;;;;;5048615;28;20458;-74
2021/11/10 12:00:00;;;;;;;43.00;39.20;;;10.20;72.20;;;;;;5054514;28;20550;-74
2021/11/10 12:02:30;;;;;;;42.70;39.37;;;10.40;71.10;;;;;;5036777;28;20994;-74
2021/11/10 12:04:58;;;;;;;41.00;37.57;;;10.30;73.20;;;;;;5046593;28;20545;-74
2021/11/10 12:07:46;;;;;;;44.10;40.23;;;10.30;73.50;;;;;;5047760;28;20886;-74
2021/11/10 12:10:47;;;;;;;43.80;39.80;;;10.40;72.30;;;;;;5039567;28;20752;-74
2021/11/10 12:13:21;;;;;;;43.40;39.90;;;10.20;71.60;;;;;;5045404;28;20482;-74
2021/11/10 12:16:20;;;;;;;43.40;39.60;;;10.10;71.30;;;;;;5047347;28;20499;-74
2021/11/10 12:18:57;;;;;;;43.10;39.50;;;10.20;71.20;;;;;;5038219;28;20463;-74
2021/11/10 12:21:33;;;;;;;45.50;41.40;;;10.20;70.90;;;;;;5043603;28;20462;-76
2021/11/10 12:24:34;;;;;;;43.13;39.73;;;10.50;70.30;;;;;;5040846;28;20470;-75
2021/11/10 12:27:30;;;;;;;47.10;43.20;;;10.60;69.60;;;;;;5037962;28;20960;-74
2021/11/10 12:30:04;;;;;;;44.33;40.50;;;10.40;70.10;;;;;;5046386;28;20493;-74
2021/11/10 12:32:56;;;;;;;43.90;40.17;;;10.10;70.80;;;;;;5047009;28;20471;-74
2021/11/10 12:35:38;;;;;;;45.33;41.23;;;10.20;71.50;;;;;;5051163;28;20542;-74
2021/11/10 12:38:13;;;;;;;43.63;40.07;;;10.20;70.60;;;;;;5048224;28;20459;-74
2021/11/10 12:40:48;;;;;;;43.37;39.73;;;10.10;71.90;;;;;;5048686;28;20510;-74
2021/11/10 12:43:18;;;;;;;47.03;42.63;;;10.10;71.30;;;;;;5046520;28;20556;-75